Adams, NE

4:16 PM CDT on September 20, 2014 (GMT -0500)
Lincoln Municipal | Change Station
CLOSE
Current Station
Airport
Location: Lincoln,
Elevation: 1188 ft
Nearby Weather Stations

Elev 1188 ft 40.85 °N, 96.76 °W | Updated 22 minutes ago

Clear
Clear
87 °F
Feels Like 85 °F
N
13
Wind Variable Wind from NNW

Today
High -- | Low -- °F
--% Chance of Precip.
Yesterday
High -- | Low -- °F
Precip. -- in
7:11 AM 7:26 PM
Waning Crescent, 10% visible
Pressure 29.91 in
Visibility 10.0 miles
Clouds Clear
Heat Index 85 °F
Dew Point 55 °F
Humidity 33%
Rainfall 0.09 in
Snow Depth Not available.
UV 5 out of 12
Pollen 6.30 out of 12
Air Quality Not available.
Flu Activity Not available.
METAR KLNK 202054Z 33011KT 10SM CLR 31/13 A2995 RMK AO2 SLP127 T03060128 58003

More Conditions Fewer Conditions

Pressure 29.91 in
Visibility 10.0 miles
Clouds Clear
Heat Index 85 °F
Dew Point 55 °F
Humidity 33%
Rainfall 0.09 in
Snow Depth Not available.
UV 5 out of 12
Pollen 6.30 out of 12
Air Quality Not available.
Flu Activity Not available.
METAR KLNK 202054Z 33011KT 10SM CLR 31/13 A2995 RMK AO2 SLP127 T03060128 58003

More Conditions Fewer Conditions

10-Day Weather Forecast

Almanac

Astronomy

Sep. 20, 2014 Rise Set
Actual Time 7:11 AM CDT 7:26 PM CDT
Civil Twilight 6:44 AM CDT 7:53 PM CDT
Nautical Twilight 6:12 AM CDT 8:25 PM CDT
Astronomical Twilight 5:39 AM CDT 8:58 PM CDT
Moon 3:51 AM CDT 5:31 PM CDT
Length of Visible Light 13h 09m
Length of Day
12h 14m
Tomorrow will be 2m 39s shorter.
Waning Crescent, 10% of the Moon is Illuminated
Today
Waning Crescent
Sep 24
New
Oct 1
First Quarter
Oct 8
Full
Oct 15
Last Quarter

Today's Extremes

State Highs State Lows

Community

WunderPhotos

Upload Photos

1,754,947 photos uploaded!

WunderBlogs® & News

Nearby

Snow Depth

Station Depth Elevation
No new snow has been reported.

Earthquake Activity

City Distance Mag. Time & Date
No recent earthquake activity has been reported nearby.
Minimum magnitude displayed is 2.5.

Coastal Water Temperatures

Place Temperature
No Stations Reporting

Nearby Weather Stations